Terminal Aerodrome Forecast
Issued by NWS

Home | Current Version | Previous Version | Text Only | Print | Product List | Glossary On
Versions: 1 2 3 4 5 6 7 8 9 10 11 12 13 14
362
FTAK31 PAJN 042322
TAFAJN
TAF
PAJN 042322Z 0500/0524 11012KT P6SM VCSH SCT035 BKN060 BKN080
      TEMPO 0500/0504 VRB05G15KT -SHRA BKN030 OVC050
     FM050500 12012KT P6SM -RA SCT025 OVC035
     FM050900 10012G22KT 5SM -RA BR BKN025 OVC035=

USA.gov is the U.S. government's official web portal to all federal, state and local government web resources and services.